Columbus, IN

9:16 AM EDT on March 29, 2015 (GMT -0400)
Franklin Street | | Change Station
CLOSE
Current Station
Personal Weather Station
Location: Columbus, IN
Elevation: 636 ft
Nearby Weather Stations

Elev 636 ft 39.22 °N, 85.92 °W | Updated 37 seconds ago

Clear
Clear
30.3 °F
Feels Like 30 °F
N
2.0
Wind Variable Wind from South
Gusts 0.0 mph

Today
High -- | Low -- °F
--% Chance of Precip.
Yesterday
High -- | Low -- °F
Precip. -- in
7:33 AM 8:04 PM
Waxing Gibbous, 71% visible
Pressure 30.32 in
Visibility 10.0 miles
Clouds Clear
Windchill 30 °F
Dew Point 20 °F
Humidity 64%
Rainfall 0.00 in
Snow Depth Not available.
UV 0 out of 12
Pollen 7.90 out of 12
Air Quality Not available.
Flu Activity Not available.
METAR KBAK 291145Z 16004KT 10SM SKC M05/M11 A3032

More Conditions Fewer Conditions

Pressure 30.32 in
Visibility 10.0 miles
Clouds Clear
Windchill 30 °F
Dew Point 20 °F
Humidity 64%
Rainfall 0.00 in
Snow Depth Not available.
UV 0 out of 12
Pollen 7.90 out of 12
Air Quality Not available.
Flu Activity Not available.
METAR KBAK 291145Z 16004KT 10SM SKC M05/M11 A3032

More Conditions Fewer Conditions

10-Day Weather Forecast

Almanac

Astronomy

Mar. 29, 2015 Rise Set
Actual Time
Civil Twilight
Nautical Twilight
Astronomical Twilight
Moon
Length of Visible Light
Length of Day
Tomorrow will be .
, % of the Moon is Illuminated

Today's Extremes

State Highs State Lows

Community

WunderPhotos

Upload Photos

1,809,232 photos uploaded!

WunderBlogs® & News

Nearby

Air Quality

  Air Quality AQ Index Pollutant
Not available.

Snow Depth

Station Depth Elevation

Earthquake Activity

City Distance Mag. Time & Date
Minimum magnitude displayed is 2.5.

Coastal Water Temperatures

Place Temperature

Stations

Nearby Weather Stations

Station Location Temp. Windchill Dew Point Humidity Wind Precip. Elev Updated Type